Aérodrome :
LOGIN :

S'inscrire | Disclaimer

   EN    FR    IT 

 










Légende :    VFR   VFR Marginal   IFR   IFR Intensif   IFR Très Intensif
Visi : 
Plafond : 
>= 8 km
>= 3000ft
5 à 8 km
1000 à 3000 ft
1500m à 5 km
500 à 1000 ft
800 à 1500m
200 à 500 ft
< 800m
< 200 ft
Symboles :   Orages  Brouillard  Fortes neiges  Fortes précipitations  Vent > 20 kt
SIGMETs :   Divers  Orages  Givrage  Turbulence  Onde Orograph.  Cendres Volcan.






- Altitude de l'aérodrome : 24 ft
- Code IATA : SGD


EKSB - Sonderborg

DERNIER METAR :
  • 201320Z 18002KT 8000 SCT010 12/10 Q1010

METARs EXPIRÉS :
  • 201250Z VRB01KT 8000 SCT009 12/10 Q1010
  • 201220Z 30002KT 7000 FEW008 12/10 Q1010
  • 201150Z AUTO 20005KT 120V240 8000NDV FEW007/// 12/10 Q1010
  • 201120Z AUTO 19004KT 120V230 8000NDV BKN007/// 12/10 Q1009
  • 201050Z AUTO 20004KT 120V240 7000NDV BKN007/// 11/10 Q1010

TAF TAF EKSB
Valide du 20 à 12h jusqu'au 20 à 19h UTC


201155Z 2012/2019 20008KT 8000 BKN008
TEMPO 2012/2019 4000 BR SCT008



MET'MAP, la Météo Aéronautique d'un coup d'oeil ! - Copyright ORBIFLY Décembre 2007 - Disclaimer

ORBIFLY MET'MAP TEAM :

Programmation & Développement : Alexandra Zaïnal
Conception & Développement : Baudouin d'Aumeries
Co-Programmation & Développement : Marc-Olivier Méhu
Soutien technique & logistique : Manuel Goepfert

Contact : metmap@orbifly.com




SOURCES & CREDITS :

   NOAA